Time;durP1;ratioP1;P1;durP2;ratioP2;P2;SDS_P1;SDS_P2;PMS_P1;PMS_P2;Temp;Humidity;BMP_temperature;BMP_pressure;BME280_temperature;BME280_humidity;BME280_pressure;Samples;Min_cycle;Max_cycle;Signal;HPM_P1;HPM_P2
2023/11/24 00:01:17;;;;;;;4.53;4.43;;;9.00;45.30;;;;;;4977789;28;20188;-62
2023/11/24 00:03:43;;;;;;;4.67;4.53;;;8.80;46.50;;;;;;4977364;28;20412;-61
2023/11/24 00:06:09;;;;;;;4.77;4.67;;;8.80;47.40;;;;;;4977479;28;20174;-61
2023/11/24 00:08:36;;;;;;;4.47;4.27;;;8.80;47.40;;;;;;4977683;28;20205;-60
2023/11/24 00:11:03;;;;;;;4.40;4.30;;;8.80;47.70;;;;;;4977448;28;20182;-62
2023/11/24 00:13:29;;;;;;;4.50;4.40;;;8.80;48.00;;;;;;4977013;28;20433;-61
2023/11/24 00:15:55;;;;;;;4.50;4.40;;;8.80;47.40;;;;;;4977256;28;20421;-62
2023/11/24 00:18:21;;;;;;;4.37;4.17;;;8.70;47.70;;;;;;4977337;28;20507;-62
2023/11/24 00:20:47;;;;;;;4.07;3.97;;;8.70;48.20;;;;;;4977228;28;20410;-62
2023/11/24 00:23:13;;;;;;;4.87;4.50;;;8.70;48.30;;;;;;4976897;28;20181;-62
2023/11/24 00:25:39;;;;;;;4.80;4.53;;;8.70;48.10;;;;;;4977139;28;20805;-62
2023/11/24 00:28:05;;;;;;;4.27;4.17;;;8.70;48.40;;;;;;4976881;28;20492;-61
2023/11/24 00:30:32;;;;;;;3.90;3.80;;;8.70;48.00;;;;;;4977360;28;20182;-62
2023/11/24 00:32:58;;;;;;;4.33;4.13;;;8.80;47.80;;;;;;4976648;28;20189;-61
2023/11/24 00:35:23;;;;;;;4.23;4.13;;;8.80;47.60;;;;;;4976867;28;20437;-62
2023/11/24 00:37:49;;;;;;;4.57;4.37;;;8.70;46.90;;;;;;4976825;28;20185;-62
2023/11/24 00:40:18;;;;;;;4.50;4.40;;;8.70;47.40;;;;;;4976433;28;20257;-62
2023/11/24 00:42:44;;;;;;;4.70;4.50;;;8.70;46.50;;;;;;4976819;28;20174;-62
2023/11/24 00:45:11;;;;;;;4.80;4.60;;;8.70;46.80;;;;;;4976812;28;20414;-62
2023/11/24 00:47:36;;;;;;;4.80;4.43;;;8.70;46.60;;;;;;4976839;28;20417;-62
2023/11/24 00:50:02;;;;;;;4.57;4.30;;;8.70;46.70;;;;;;4976657;28;20440;-62
2023/11/24 00:52:28;;;;;;;4.60;4.50;;;8.60;46.80;;;;;;4976638;28;20182;-62
2023/11/24 00:54:54;;;;;;;4.43;4.23;;;8.60;47.50;;;;;;4976431;28;20417;-62
2023/11/24 00:57:20;;;;;;;4.17;4.07;;;8.60;47.50;;;;;;4976237;28;20178;-62
2023/11/24 00:59:45;;;;;;;4.40;4.20;;;8.60;46.80;;;;;;4975502;28;20479;-62
2023/11/24 01:02:11;;;;;;;4.30;4.10;;;8.60;47.50;;;;;;4975963;28;20516;-62
2023/11/24 01:04:37;;;;;;;3.87;3.77;;;8.60;47.10;;;;;;5034093;22;20426;-79
2023/11/24 01:07:03;;;;;;;4.30;4.20;;;8.60;47.50;;;;;;4989903;28;20186;-79
2023/11/24 01:09:28;;;;;;;4.30;4.10;;;8.50;46.00;;;;;;4988212;28;20209;-78
2023/11/24 01:11:54;;;;;;;4.40;4.30;;;8.60;46.10;;;;;;4970724;28;20417;-79
2023/11/24 01:14:19;;;;;;;4.10;4.00;;;8.70;46.00;;;;;;4982965;28;20206;-79
2023/11/24 01:16:45;;;;;;;4.50;4.40;;;8.70;45.40;;;;;;4974701;28;20179;-79
2023/11/24 01:19:10;;;;;;;4.87;4.70;;;8.70;45.20;;;;;;4973445;28;20202;-80
2023/11/24 01:21:39;;;;;;;4.40;4.20;;;8.70;44.80;;;;;;4976397;28;20179;-80
2023/11/24 01:24:05;;;;;;;4.57;4.27;;;8.70;45.90;;;;;;4978012;28;20198;-80
2023/11/24 01:26:31;;;;;;;5.00;4.80;;;8.60;46.00;;;;;;4968911;28;20430;-81
2023/11/24 01:28:58;;;;;;;4.60;4.30;;;8.70;45.80;;;;;;4969277;28;20488;-79
2023/11/24 01:31:24;;;;;;;4.63;4.43;;;8.60;45.60;;;;;;4981842;28;20683;-79
2023/11/24 01:33:50;;;;;;;4.47;4.33;;;8.70;45.50;;;;;;4975275;28;20550;-80
2023/11/24 01:36:15;;;;;;;4.73;4.60;;;8.70;45.60;;;;;;4979527;28;20454;-79
2023/11/24 01:38:41;;;;;;;4.33;4.20;;;8.70;45.20;;;;;;4979724;28;20214;-80
2023/11/24 01:41:06;;;;;;;4.47;4.37;;;8.80;45.50;;;;;;4987106;28;20183;-79
2023/11/24 01:43:32;;;;;;;4.23;4.13;;;8.90;45.30;;;;;;4980497;28;20214;-79
2023/11/24 01:45:58;;;;;;;4.90;4.80;;;8.90;45.80;;;;;;4980148;28;20187;-80
2023/11/24 01:48:24;;;;;;;4.90;4.70;;;8.80;45.90;;;;;;4980343;28;20194;-81
2023/11/24 01:50:50;;;;;;;4.20;4.10;;;8.80;46.60;;;;;;4980259;28;20681;-79
2023/11/24 01:53:16;;;;;;;4.33;4.23;;;8.80;47.50;;;;;;4970675;28;20522;-79
2023/11/24 01:55:42;;;;;;;4.50;4.40;;;8.80;48.20;;;;;;4970547;28;20825;-80
2023/11/24 01:58:08;;;;;;;4.77;4.57;;;8.80;48.00;;;;;;4979675;28;20438;-80
2023/11/24 02:00:36;;;;;;;5.37;4.90;;;8.80;48.10;;;;;;4980362;28;20202;-80
2023/11/24 02:03:02;;;;;;;5.00;4.80;;;8.70;48.50;;;;;;4971610;28;20422;-78
2023/11/24 02:05:27;;;;;;;4.80;4.60;;;8.70;48.90;;;;;;4981282;28;20504;-78
2023/11/24 02:07:53;;;;;;;4.70;4.60;;;8.70;49.40;;;;;;4982846;28;20438;-80
2023/11/24 02:10:19;;;;;;;4.83;4.63;;;8.80;50.00;;;;;;4972392;28;20191;-79
2023/11/24 02:12:44;;;;;;;5.17;4.97;;;8.80;49.20;;;;;;4992275;28;20214;-78
2023/11/24 02:15:10;;;;;;;4.87;4.67;;;8.80;49.00;;;;;;4994457;28;20286;-78
2023/11/24 02:17:36;;;;;;;4.10;4.00;;;8.80;49.50;;;;;;4985864;28;20174;-79
2023/11/24 02:20:07;;;;;;;4.40;4.30;;;8.70;49.70;;;;;;4994345;28;20210;-80
2023/11/24 02:22:41;;;;;;;4.97;4.77;;;8.70;50.20;;;;;;4992621;28;20426;-80
2023/11/24 02:25:08;;;;;;;4.27;4.17;;;8.70;51.30;;;;;;4980043;28;20441;-79
2023/11/24 02:27:33;;;;;;;4.30;4.10;;;8.70;51.30;;;;;;4980468;28;20457;-80
2023/11/24 02:29:59;;;;;;;3.97;3.87;;;8.70;51.30;;;;;;4982214;28;20421;-79
2023/11/24 02:32:24;;;;;;;4.20;4.00;;;8.80;51.50;;;;;;4178379;23;20248;-61
2023/11/24 02:34:50;;;;;;;4.33;4.23;;;8.70;52.00;;;;;;5027074;28;20177;-61
2023/11/24 02:37:16;;;;;;;3.83;3.73;;;8.70;52.40;;;;;;5018617;28;20550;-61
2023/11/24 02:39:41;;;;;;;3.90;3.80;;;8.80;52.70;;;;;;5018638;28;20215;-61
2023/11/24 02:42:07;;;;;;;4.03;3.93;;;8.70;53.00;;;;;;5018902;28;20629;-61
2023/11/24 02:44:32;;;;;;;3.67;3.47;;;8.70;53.20;;;;;;5018865;28;20184;-61
2023/11/24 02:46:59;;;;;;;3.80;3.70;;;8.70;54.00;;;;;;5027489;28;20177;-51
2023/11/24 02:49:24;;;;;;;3.83;3.63;;;8.60;54.40;;;;;;5018826;28;20177;-49
2023/11/24 02:51:50;;;;;;;3.93;3.83;;;8.80;54.40;;;;;;5018983;28;20424;-51
2023/11/24 02:54:15;;;;;;;3.97;3.87;;;8.80;54.20;;;;;;5027100;28;20268;-53
2023/11/24 02:56:41;;;;;;;3.70;3.60;;;8.80;54.20;;;;;;5027148;28;20633;-52
2023/11/24 02:59:07;;;;;;;3.80;3.63;;;8.90;53.50;;;;;;5018649;28;20197;-49
2023/11/24 03:01:32;;;;;;;3.90;3.80;;;8.90;52.90;;;;;;5018919;28;20174;-63
2023/11/24 03:03:58;;;;;;;3.93;3.70;;;8.90;52.60;;;;;;5027130;28;20633;-64
2023/11/24 03:06:23;;;;;;;3.80;3.70;;;8.90;52.60;;;;;;5026950;28;20182;-61
2023/11/24 03:08:49;;;;;;;3.90;3.80;;;8.90;52.70;;;;;;5018769;28;20217;-49
2023/11/24 03:11:14;;;;;;;3.90;3.70;;;9.00;52.40;;;;;;5026982;28;20181;-48
2023/11/24 03:13:40;;;;;;;4.00;3.90;;;9.00;52.10;;;;;;5026788;28;20192;-52
2023/11/24 03:16:06;;;;;;;4.17;4.07;;;9.00;52.20;;;;;;5026889;28;20188;-53
2023/11/24 03:18:33;;;;;;;4.40;4.10;;;9.00;51.80;;;;;;5018630;28;20221;-49
2023/11/24 03:20:58;;;;;;;4.23;4.13;;;9.00;52.20;;;;;;5027133;28;20645;-46
2023/11/24 03:23:24;;;;;;;4.23;4.13;;;9.00;51.50;;;;;;5028669;28;20431;-51
2023/11/24 03:25:50;;;;;;;4.20;4.10;;;8.90;51.80;;;;;;5021292;28;20181;-53
2023/11/24 03:28:18;;;;;;;3.97;3.80;;;8.90;52.90;;;;;;5030203;28;20169;-53
2023/11/24 03:30:44;;;;;;;4.07;3.90;;;8.90;53.00;;;;;;5021974;28;20432;-51
2023/11/24 03:33:09;;;;;;;4.53;4.33;;;8.90;52.20;;;;;;5029926;28;20574;-53
2023/11/24 03:35:35;;;;;;;4.10;4.00;;;8.90;52.60;;;;;;5021950;28;20645;-52
2023/11/24 03:38:01;;;;;;;3.90;3.80;;;8.90;51.60;;;;;;5030279;28;20188;-53
2023/11/24 03:40:27;;;;;;;4.53;4.43;;;8.80;51.40;;;;;;5030023;28;20288;-51
2023/11/24 03:42:52;;;;;;;4.03;3.93;;;8.70;51.70;;;;;;5021627;28;20635;-53
2023/11/24 03:45:18;;;;;;;4.00;3.90;;;8.60;52.50;;;;;;5029977;28;20638;-52
2023/11/24 03:47:44;;;;;;;3.90;3.80;;;8.60;52.40;;;;;;5021372;28;20853;-49
2023/11/24 03:50:10;;;;;;;4.40;4.30;;;8.70;52.40;;;;;;5029746;28;20220;-52
2023/11/24 03:52:36;;;;;;;4.83;4.73;;;8.60;51.20;;;;;;5021600;28;20200;-49
2023/11/24 03:55:03;;;;;;;4.10;4.00;;;8.60;51.20;;;;;;5029785;28;20442;-54
2023/11/24 03:57:29;;;;;;;4.17;4.07;;;8.70;51.30;;;;;;5029173;28;20524;-54
2023/11/24 03:59:54;;;;;;;4.00;3.90;;;8.70;50.80;;;;;;5021109;28;20514;-53
2023/11/24 04:02:20;;;;;;;4.20;4.10;;;8.80;51.00;;;;;;5029506;28;20181;-52
2023/11/24 04:04:48;;;;;;;4.47;4.37;;;8.70;50.00;;;;;;5021035;28;20539;-53
2023/11/24 04:07:15;;;;;;;4.20;4.10;;;8.80;49.70;;;;;;5029591;28;20178;-61
2023/11/24 04:09:41;;;;;;;4.70;4.60;;;8.80;50.20;;;;;;5029121;28;20420;-61
2023/11/24 04:12:07;;;;;;;4.30;4.20;;;8.80;49.60;;;;;;5029280;28;20424;-62
2023/11/24 04:14:32;;;;;;;4.00;3.90;;;8.70;49.50;;;;;;5028055;28;20607;-54
2023/11/24 04:16:58;;;;;;;4.20;4.10;;;8.70;49.70;;;;;;5018751;28;20216;-54
2023/11/24 04:19:24;;;;;;;4.47;4.37;;;8.80;49.80;;;;;;5027097;28;20260;-51
2023/11/24 04:21:50;;;;;;;5.03;4.83;;;8.90;49.00;;;;;;5019193;28;20700;-54
2023/11/24 04:24:15;;;;;;;4.30;4.20;;;8.90;48.50;;;;;;5027120;28;20569;-54
2023/11/24 04:26:41;;;;;;;4.93;4.83;;;9.00;48.70;;;;;;5018965;28;20416;-54
2023/11/24 04:29:07;;;;;;;4.70;4.60;;;9.10;47.70;;;;;;5027507;28;20586;-52
2023/11/24 04:31:32;;;;;;;4.90;4.57;;;9.10;47.40;;;;;;5028672;28;20177;-53
2023/11/24 04:33:59;;;;;;;4.50;4.40;;;9.10;47.90;;;;;;5020526;28;20185;-54
2023/11/24 04:36:25;;;;;;;4.73;4.63;;;9.20;47.50;;;;;;5028778;28;20255;-50
2023/11/24 04:38:51;;;;;;;4.87;4.77;;;9.20;46.80;;;;;;5020210;28;20983;-53
2023/11/24 04:41:16;;;;;;;5.00;4.80;;;9.20;46.20;;;;;;5028635;28;20216;-54
2023/11/24 04:43:42;;;;;;;4.90;4.80;;;9.20;46.80;;;;;;5020135;28;20177;-53
2023/11/24 04:46:09;;;;;;;5.20;5.10;;;9.20;47.30;;;;;;5028658;28;20236;-48
2023/11/24 04:48:37;;;;;;;5.00;4.90;;;9.10;46.80;;;;;;5020161;28;20300;-51
2023/11/24 04:51:04;;;;;;;5.13;5.03;;;9.10;46.80;;;;;;5028531;28;20829;-52
2023/11/24 04:53:30;;;;;;;4.70;4.60;;;9.10;46.80;;;;;;5028156;28;20456;-52
2023/11/24 04:55:56;;;;;;;5.17;4.87;;;9.30;46.80;;;;;;5020100;28;20766;-52
2023/11/24 04:58:22;;;;;;;5.83;5.63;;;9.60;42.80;;;;;;5028218;28;20455;-53
2023/11/24 05:00:47;;;;;;;7.27;6.77;;;9.60;39.50;;;;;;5012970;28;20684;-54
2023/11/24 05:03:13;;;;;;;6.57;6.17;;;9.60;39.20;;;;;;5019698;28;20186;-53
2023/11/24 05:05:39;;;;;;;7.23;6.83;;;9.70;38.80;;;;;;5019853;28;20178;-53
2023/11/24 05:08:04;;;;;;;6.47;6.17;;;9.60;38.10;;;;;;5028075;28;20188;-52
2023/11/24 05:10:30;;;;;;;7.23;6.83;;;9.60;38.60;;;;;;5028065;28;20276;-52
2023/11/24 05:12:56;;;;;;;7.70;7.17;;;9.60;38.60;;;;;;5027896;28;20511;-50
2023/11/24 05:15:21;;;;;;;8.50;7.80;;;9.50;38.80;;;;;;5028052;28;20219;-48
2023/11/24 05:17:47;;;;;;;8.30;7.60;;;9.50;40.40;;;;;;5027924;28;20185;-47
2023/11/24 05:20:12;;;;;;;7.70;7.30;;;9.50;40.00;;;;;;5027767;28;20211;-52
2023/11/24 05:22:39;;;;;;;7.80;7.30;;;9.50;40.50;;;;;;5019573;28;20380;-54
2023/11/24 05:25:06;;;;;;;8.23;7.73;;;9.60;40.90;;;;;;5027674;28;20178;-52
2023/11/24 05:27:31;;;;;;;8.53;7.80;;;9.50;39.80;;;;;;5027806;28;20439;-49
2023/11/24 05:29:58;;;;;;;7.37;6.97;;;9.40;40.90;;;;;;5019525;28;20428;-52
2023/11/24 05:32:24;;;;;;;8.07;7.67;;;9.40;42.00;;;;;;5019236;28;20204;-53
2023/11/24 05:34:50;;;;;;;8.80;7.90;;;9.30;42.00;;;;;;5019329;28;20432;-48
2023/11/24 05:37:16;;;;;;;8.13;7.73;;;9.30;42.00;;;;;;5027473;28;20177;-49
2023/11/24 05:39:42;;;;;;;8.73;8.20;;;9.40;42.00;;;;;;5019112;28;20490;-51
2023/11/24 05:42:08;;;;;;;8.40;7.80;;;9.40;41.90;;;;;;5027560;28;20475;-48
2023/11/24 05:44:34;;;;;;;8.03;7.63;;;9.40;40.50;;;;;;5027211;28;20186;-49
2023/11/24 05:47:04;;;;;;;8.00;7.50;;;9.40;41.90;;;;;;5018826;28;20431;-49
2023/11/24 05:49:30;;;;;;;8.47;7.57;;;9.50;40.40;;;;;;5018892;28;20189;-49
2023/11/24 05:51:56;;;;;;;8.13;7.73;;;9.50;40.60;;;;;;5019111;28;20503;-49
2023/11/24 05:54:21;;;;;;;7.50;7.03;;;9.50;39.90;;;;;;5027109;28;20913;-53
2023/11/24 05:56:47;;;;;;;9.27;8.57;;;9.50;39.90;;;;;;5018982;28;20542;-50
2023/11/24 05:59:12;;;;;;;8.10;7.50;;;9.30;40.70;;;;;;5027247;28;20201;-53
2023/11/24 06:01:38;;;;;;;7.93;7.43;;;9.30;40.10;;;;;;5018911;28;20178;-62
2023/11/24 06:04:04;;;;;;;11.67;7.70;;;9.40;38.90;;;;;;4999278;28;20205;-62
2023/11/24 06:06:29;;;;;;;7.03;6.50;;;9.40;39.30;;;;;;5027230;28;20181;-62
2023/11/24 06:08:55;;;;;;;9.10;8.37;;;9.40;39.00;;;;;;5027263;28;20181;-62
2023/11/24 06:11:21;;;;;;;9.27;8.30;;;9.30;39.80;;;;;;5027154;28;20190;-61
2023/11/24 06:13:47;;;;;;;8.17;7.67;;;9.20;40.00;;;;;;5018767;28;20173;-62
2023/11/24 06:16:13;;;;;;;8.77;8.17;;;9.30;40.20;;;;;;5027248;28;20495;-62
2023/11/24 06:18:41;;;;;;;9.20;8.60;;;9.30;39.40;;;;;;5026931;28;20197;-62
2023/11/24 06:21:11;;;;;;;8.50;8.00;;;9.40;38.80;;;;;;5018976;28;20420;-62
2023/11/24 06:23:38;;;;;;;8.03;7.63;;;9.40;37.60;;;;;;5026770;28;20412;-62
2023/11/24 06:26:04;;;;;;;9.07;8.27;;;9.30;38.50;;;;;;5014050;28;20431;-62
2023/11/24 06:28:29;;;;;;;9.33;8.67;;;9.20;39.20;;;;;;5011694;28;20424;-62
2023/11/24 06:30:55;;;;;;;8.50;8.00;;;8.90;40.00;;;;;;5027139;28;20660;-61
2023/11/24 06:33:20;;;;;;;8.13;7.70;;;8.70;41.50;;;;;;5026664;28;20201;-62
2023/11/24 06:35:46;;;;;;;8.93;8.23;;;8.70;41.50;;;;;;5018662;28;20578;-62
2023/11/24 06:38:12;;;;;;;12.90;11.60;;;8.60;42.40;;;;;;5018794;28;20173;-62
2023/11/24 06:40:38;;;;;;;8.47;7.97;;;8.80;41.60;;;;;;5026714;28;20208;-62
2023/11/24 06:43:03;;;;;;;7.83;7.33;;;8.80;42.20;;;;;;5002144;28;20424;-62
2023/11/24 06:45:29;;;;;;;7.20;6.80;;;8.70;40.90;;;;;;5025733;28;20555;-62
2023/11/24 06:47:54;;;;;;;7.97;7.43;;;8.60;40.40;;;;;;5013896;28;20219;-62
2023/11/24 06:50:20;;;;;;;7.77;7.37;;;8.60;41.40;;;;;;5018475;28;20266;-63
2023/11/24 06:52:46;;;;;;;8.23;7.63;;;8.60;40.10;;;;;;5010393;28;20186;-62
2023/11/24 06:55:11;;;;;;;7.93;7.23;;;8.50;39.30;;;;;;5018593;28;20181;-62
2023/11/24 06:57:37;;;;;;;7.33;6.83;;;8.50;40.10;;;;;;5019194;28;20196;-62
2023/11/24 07:00:05;;;;;;;7.33;6.90;;;8.60;40.30;;;;;;5017011;28;20204;-62
2023/11/24 07:02:31;;;;;;;7.50;7.00;;;8.50;39.90;;;;;;5022239;28;20178;-62
2023/11/24 07:04:57;;;;;;;7.20;6.70;;;8.50;37.90;;;;;;5030190;28;20409;-62
2023/11/24 07:07:23;;;;;;;9.60;6.77;;;8.50;40.10;;;;;;5030177;28;20428;-62
2023/11/24 07:09:48;;;;;;;8.00;7.50;;;8.50;40.10;;;;;;5021788;28;20280;-62
2023/11/24 07:12:17;;;;;;;6.90;6.50;;;8.60;39.70;;;;;;5014351;28;20173;-62
2023/11/24 07:14:47;;;;;;;7.33;6.83;;;8.60;38.00;;;;;;5021880;28;20213;-62
2023/11/24 07:17:13;;;;;;;12.30;8.20;;;8.70;38.90;;;;;;5022160;28;20432;-63
2023/11/24 07:19:40;;;;;;;7.63;7.13;;;8.70;39.30;;;;;;5021547;28;20467;-62
2023/11/24 07:22:06;;;;;;;7.07;6.47;;;8.70;39.60;;;;;;5030222;28;20480;-63
2023/11/24 07:24:32;;;;;;;6.83;6.43;;;8.80;39.20;;;;;;5029705;28;20432;-62
2023/11/24 07:26:59;;;;;;;7.10;6.60;;;8.80;39.30;;;;;;5021832;28;20173;-63
2023/11/24 07:29:25;;;;;;;6.80;6.40;;;8.90;39.20;;;;;;5029906;28;20522;-62
2023/11/24 07:31:50;;;;;;;7.27;6.87;;;8.90;39.50;;;;;;5019971;28;20515;-62
2023/11/24 07:34:17;;;;;;;7.73;7.13;;;9.10;39.20;;;;;;5017790;28;20634;-62
2023/11/24 07:36:44;;;;;;;6.87;6.57;;;9.10;38.30;;;;;;5028024;28;20181;-60
2023/11/24 07:39:10;;;;;;;7.80;7.20;;;9.30;39.30;;;;;;5021114;28;20470;-59
2023/11/24 07:41:36;;;;;;;8.57;7.80;;;9.40;37.70;;;;;;5029612;28;20478;-62
2023/11/24 07:44:02;;;;;;;7.60;7.10;;;9.60;37.80;;;;;;5021323;28;20428;-61
2023/11/24 07:46:28;;;;;;;8.13;7.53;;;9.60;37.40;;;;;;5029684;28;20188;-62
2023/11/24 07:48:54;;;;;;;7.60;7.00;;;9.40;37.30;;;;;;5016598;28;20456;-61
2023/11/24 07:51:21;;;;;;;9.10;8.40;;;9.40;38.80;;;;;;5021518;28;20186;-62
2023/11/24 07:53:47;;;;;;;8.20;7.40;;;9.50;38.60;;;;;;5013081;28;20189;-62
2023/11/24 07:56:12;;;;;;;7.60;7.27;;;9.30;39.20;;;;;;5029596;28;20428;-62
2023/11/24 07:58:39;;;;;;;7.70;7.17;;;9.40;39.50;;;;;;5029163;28;20634;-61
2023/11/24 08:01:05;;;;;;;6.77;6.30;;;9.50;39.00;;;;;;5020925;28;20182;-61
2023/11/24 08:03:32;;;;;;;7.40;6.87;;;9.50;39.50;;;;;;5028947;28;20436;-62
2023/11/24 08:06:06;;;;;;;7.23;6.93;;;9.50;38.80;;;;;;5021032;28;20428;-62
2023/11/24 08:08:32;;;;;;;8.03;7.43;;;9.50;39.40;;;;;;5028712;28;20432;-63
2023/11/24 08:10:57;;;;;;;7.80;7.37;;;9.40;39.90;;;;;;5021023;28;20413;-63
2023/11/24 08:13:23;;;;;;;8.20;7.57;;;9.40;40.80;;;;;;5029015;28;20520;-63
2023/11/24 08:15:49;;;;;;;7.53;7.00;;;9.20;40.90;;;;;;5020856;28;20621;-63
2023/11/24 08:18:14;;;;;;;8.10;7.50;;;9.10;41.80;;;;;;5029108;28;20184;-63
2023/11/24 08:20:41;;;;;;;8.27;7.90;;;9.20;41.50;;;;;;5028930;28;20216;-63
2023/11/24 08:23:06;;;;;;;8.07;7.47;;;9.30;41.10;;;;;;5020598;28;20181;-63
2023/11/24 08:25:32;;;;;;;8.53;8.10;;;9.50;40.70;;;;;;5028836;28;20443;-62
2023/11/24 08:28:00;;;;;;;8.00;7.60;;;9.40;38.60;;;;;;5020482;28;20431;-62
2023/11/24 08:30:25;;;;;;;8.77;8.00;;;9.20;39.50;;;;;;5028702;28;20436;-62
2023/11/24 08:32:51;;;;;;;8.57;7.97;;;9.20;39.70;;;;;;5020078;28;20601;-62
2023/11/24 08:35:17;;;;;;;8.03;7.53;;;9.10;39.80;;;;;;5027807;28;20204;-61
2023/11/24 08:37:42;;;;;;;9.23;8.60;;;9.10;40.50;;;;;;5027302;28;20200;-61
2023/11/24 08:40:11;;;;;;;8.53;7.77;;;9.00;40.50;;;;;;5019041;28;20197;-62
2023/11/24 08:42:38;;;;;;;8.73;8.03;;;9.00;40.40;;;;;;5028423;28;20182;-61
2023/11/24 08:45:06;;;;;;;8.80;8.10;;;9.10;39.70;;;;;;5016295;28;20490;-57
2023/11/24 08:47:31;;;;;;;9.77;9.03;;;9.00;39.90;;;;;;5028105;28;20432;-57
2023/11/24 08:49:57;;;;;;;8.33;7.83;;;9.10;40.70;;;;;;5025232;28;20421;-57
2023/11/24 08:52:23;;;;;;;8.63;7.83;;;9.00;39.80;;;;;;5017857;28;20182;-62
2023/11/24 08:54:49;;;;;;;8.17;7.47;;;9.10;40.20;;;;;;5011810;28;20279;-62
2023/11/24 08:57:16;;;;;;;8.37;7.67;;;9.10;40.30;;;;;;5024088;28;20227;-63
2023/11/24 08:59:42;;;;;;;9.20;8.40;;;9.00;40.30;;;;;;5020185;28;20451;-61
2023/11/24 09:02:08;;;;;;;8.47;7.70;;;8.90;40.40;;;;;;5028420;28;20443;-62
2023/11/24 09:04:35;;;;;;;9.00;8.10;;;9.10;40.60;;;;;;5012821;28;20931;-62
2023/11/24 09:07:01;;;;;;;9.40;8.67;;;9.10;39.40;;;;;;5012991;28;20177;-62
2023/11/24 09:09:28;;;;;;;8.83;8.13;;;9.00;39.90;;;;;;5028007;28;20428;-62
2023/11/24 09:11:54;;;;;;;8.40;7.90;;;9.10;39.70;;;;;;5019797;28;20428;-61
2023/11/24 09:14:20;;;;;;;8.10;7.50;;;9.10;40.20;;;;;;5028070;28;20448;-62
2023/11/24 09:16:45;;;;;;;9.40;8.53;;;9.00;39.40;;;;;;5019523;28;20201;-62
2023/11/24 09:19:11;;;;;;;9.67;8.77;;;8.90;39.00;;;;;;5019757;28;20464;-63
2023/11/24 09:21:37;;;;;;;10.27;9.30;;;8.80;39.40;;;;;;5027119;28;20552;-62
2023/11/24 09:24:03;;;;;;;8.73;8.13;;;8.90;40.20;;;;;;5019497;28;20312;-63
2023/11/24 09:26:29;;;;;;;9.60;8.70;;;8.90;39.10;;;;;;5027847;28;20208;-63
2023/11/24 09:28:54;;;;;;;12.17;8.67;;;9.00;40.40;;;;;;5027682;28;20546;-63
2023/11/24 09:31:21;;;;;;;8.87;8.07;;;9.00;39.50;;;;;;5027829;28;20188;-62
2023/11/24 09:33:47;;;;;;;8.90;8.00;;;9.00;38.80;;;;;;5019216;28;20439;-63
2023/11/24 09:36:13;;;;;;;8.97;8.17;;;9.00;39.30;;;;;;5019380;28;20904;-63
2023/11/24 09:38:39;;;;;;;8.50;7.90;;;9.10;39.30;;;;;;5027431;28;20193;-63
2023/11/24 09:41:11;;;;;;;9.43;8.53;;;9.00;38.10;;;;;;5019408;28;20579;-62
2023/11/24 09:43:37;;;;;;;9.27;8.33;;;9.10;39.50;;;;;;5027285;28;20428;-63
2023/11/24 09:46:04;;;;;;;9.10;8.40;;;9.20;37.90;;;;;;5019077;28;20984;-63
2023/11/24 09:48:32;;;;;;;10.40;9.67;;;9.20;37.20;;;;;;5027275;28;20906;-63
2023/11/24 09:51:00;;;;;;;10.03;9.20;;;9.40;36.40;;;;;;5021962;28;20436;-62
2023/11/24 09:53:35;;;;;;;9.20;8.40;;;9.30;36.60;;;;;;5021230;28;20420;-59
2023/11/24 09:56:05;;;;;;;11.43;8.80;;;9.30;35.40;;;;;;5012610;28;20493;-63
2023/11/24 09:58:34;;;;;;;9.33;8.50;;;9.40;35.70;;;;;;5027334;28;20456;-62
2023/11/24 10:01:18;;;;;;;8.47;7.93;;;9.50;33.60;;;;;;5012611;28;20440;-62
2023/11/24 10:03:50;;;;;;;9.20;8.50;;;9.30;32.90;;;;;;5020384;28;20535;-62
2023/11/24 10:06:19;;;;;;;9.73;8.70;;;9.30;34.00;;;;;;5012619;28;20522;-62
2023/11/24 10:08:45;;;;;;;8.43;7.73;;;9.30;32.00;;;;;;5008087;28;20428;-62
2023/11/24 10:11:17;;;;;;;11.43;8.40;;;9.10;31.70;;;;;;5020161;28;20425;-62
2023/11/24 10:13:44;;;;;;;9.73;8.53;;;9.00;32.90;;;;;;5025583;28;20432;-62
2023/11/24 10:16:13;;;;;;;8.33;7.63;;;9.00;33.50;;;;;;5017780;28;20432;-62
2023/11/24 10:18:40;;;;;;;8.50;7.80;;;9.20;31.80;;;;;;5025042;28;20947;-62
2023/11/24 10:21:11;;;;;;;8.30;7.70;;;9.20;32.00;;;;;;5017726;28;20820;-61
2023/11/24 10:23:39;;;;;;;9.53;7.90;;;9.10;33.40;;;;;;5025729;28;20462;-61
2023/11/24 10:26:18;;;;;;;7.63;7.13;;;9.20;33.10;;;;;;5017676;28;20455;-62
2023/11/24 10:28:47;;;;;;;11.83;9.00;;;9.20;31.80;;;;;;5025606;28;20694;-62
2023/11/24 10:31:13;;;;;;;9.17;8.47;;;9.20;32.60;;;;;;5017996;28;20840;-62
2023/11/24 10:33:42;;;;;;;8.70;7.93;;;9.30;32.80;;;;;;5029799;28;20454;-62
2023/11/24 10:36:08;;;;;;;9.53;8.60;;;9.30;32.40;;;;;;5021385;28;20431;-62
2023/11/24 10:38:41;;;;;;;9.17;8.40;;;9.40;31.90;;;;;;5026284;28;20445;-62
2023/11/24 10:41:18;;;;;;;12.60;9.70;;;9.50;31.10;;;;;;5029630;28;20431;-61
2023/11/24 10:43:50;;;;;;;10.07;8.77;;;9.60;31.00;;;;;;5029234;28;20691;-62
2023/11/24 10:46:22;;;;;;;9.13;8.53;;;9.30;30.80;;;;;;5021128;28;20848;-62
2023/11/24 10:48:50;;;;;;;10.30;9.40;;;9.20;31.80;;;;;;5021300;28;20439;-63
2023/11/24 10:51:38;;;;;;;9.47;8.67;;;9.40;31.90;;;;;;5021352;28;20423;-61
2023/11/24 10:54:06;;;;;;;9.83;8.97;;;9.50;30.60;;;;;;5022336;28;20950;-62
2023/11/24 10:56:36;;;;;;;8.47;7.80;;;9.50;31.70;;;;;;5020666;28;20844;-62
2023/11/24 10:59:05;;;;;;;10.17;8.70;;;9.70;29.60;;;;;;5020599;28;20496;-63
2023/11/24 11:01:31;;;;;;;9.33;8.53;;;9.80;28.90;;;;;;5013062;28;20429;-62
2023/11/24 11:03:59;;;;;;;9.17;8.30;;;9.60;30.20;;;;;;5010983;28;20427;-62
2023/11/24 11:06:46;;;;;;;9.33;8.57;;;9.50;30.80;;;;;;5028777;28;20428;-63
2023/11/24 11:12:19;;;;;;;8.43;6.80;;;9.50;31.00;;;;;;5013640;28;20435;-62
2023/11/24 11:14:45;;;;;;;9.13;8.23;;;9.60;30.70;;;;;;5020614;28;20996;-62
2023/11/24 11:17:19;;;;;;;9.00;8.30;;;9.40;30.00;;;;;;5020657;28;20424;-61
2023/11/24 11:19:59;;;;;;;10.27;9.03;;;9.60;30.80;;;;;;5028638;28;20493;-62
2023/11/24 11:22:29;;;;;;;8.53;7.97;;;9.60;30.20;;;;;;5029209;28;20467;-61
2023/11/24 11:25:13;;;;;;;8.10;7.60;;;9.60;30.10;;;;;;5028790;28;20430;-61
2023/11/24 11:27:40;;;;;;;10.13;8.07;;;9.70;30.10;;;;;;5020101;28;20440;-61
2023/11/24 11:30:27;;;;;;;8.03;7.43;;;9.80;29.10;;;;;;5020437;28;20758;-61
2023/11/24 11:33:03;;;;;;;8.67;7.77;;;9.80;29.20;;;;;;5028458;28;20842;-61
2023/11/24 11:35:33;;;;;;;7.77;7.13;;;9.90;28.70;;;;;;5020182;28;20977;-62
2023/11/24 11:38:04;;;;;;;8.53;7.70;;;10.00;27.40;;;;;;5010660;28;20432;-61
2023/11/24 11:40:35;;;;;;;9.33;8.57;;;9.80;28.40;;;;;;5020390;28;20475;-62
2023/11/24 11:43:15;;;;;;;8.67;8.07;;;9.70;28.40;;;;;;5004535;28;20832;-61
2023/11/24 11:45:48;;;;;;;9.40;8.10;;;9.60;29.20;;;;;;5020183;28;20432;-61
2023/11/24 11:48:14;;;;;;;8.77;8.00;;;9.50;29.10;;;;;;5016272;28;20795;-61
2023/11/24 11:50:56;;;;;;;9.00;8.37;;;9.50;30.10;;;;;;5019074;28;20438;-61
2023/11/24 11:53:25;;;;;;;8.50;8.00;;;9.50;29.00;;;;;;5013133;28;20181;-63
2023/11/24 11:56:06;;;;;;;9.23;8.37;;;9.60;28.30;;;;;;5010037;28;20520;-61
2023/11/24 11:58:34;;;;;;;8.53;7.90;;;9.60;29.00;;;;;;5012898;28;20416;-61
2023/11/24 12:01:03;;;;;;;8.77;8.07;;;9.60;28.60;;;;;;5011867;28;20472;-61
2023/11/24 12:03:30;;;;;;;8.60;8.00;;;9.60;29.40;;;;;;5027260;28;20431;-61
2023/11/24 12:05:58;;;;;;;9.13;8.40;;;9.40;29.90;;;;;;5012792;28;20444;-61
2023/11/24 12:08:27;;;;;;;11.20;9.67;;;9.30;30.40;;;;;;5019997;28;20908;-61
2023/11/24 12:10:53;;;;;;;8.70;8.10;;;9.10;31.00;;;;;;5027857;28;20471;-61
2023/11/24 12:13:21;;;;;;;8.30;7.60;;;9.00;31.60;;;;;;5012946;28;20533;-61
2023/11/24 12:15:48;;;;;;;10.00;9.40;;;8.80;31.40;;;;;;5019551;28;20447;-61
2023/11/24 12:18:14;;;;;;;9.80;9.03;;;8.80;33.60;;;;;;5019438;28;20431;-61
2023/11/24 12:20:40;;;;;;;9.53;8.60;;;8.70;34.30;;;;;;5027954;28;20511;-61
2023/11/24 12:23:09;;;;;;;8.93;8.10;;;8.60;34.60;;;;;;5019241;28;20423;-61
2023/11/24 12:25:36;;;;;;;8.53;7.93;;;8.80;34.00;;;;;;5027598;28;20416;-61
2023/11/24 12:28:12;;;;;;;11.73;9.30;;;8.90;34.30;;;;;;5027549;28;20452;-64
2023/11/24 12:30:41;;;;;;;8.23;7.60;;;8.80;35.40;;;;;;5012126;28;20428;-64
2023/11/24 12:33:18;;;;;;;8.57;7.90;;;8.90;32.30;;;;;;5019681;28;20440;-65
2023/11/24 12:35:51;;;;;;;9.43;8.83;;;8.60;33.90;;;;;;5019430;28;20431;-64
2023/11/24 12:38:18;;;;;;;8.63;8.10;;;8.60;34.20;;;;;;5027755;28;20431;-54
2023/11/24 12:40:47;;;;;;;9.00;8.50;;;8.30;35.40;;;;;;5011885;28;20838;-55
2023/11/24 12:43:14;;;;;;;7.77;7.37;;;8.20;33.80;;;;;;5020992;28;20466;-65
2023/11/24 12:45:43;;;;;;;8.47;7.87;;;8.30;33.80;;;;;;5014567;28;20943;-64
2023/11/24 12:48:21;;;;;;;7.77;7.23;;;8.30;34.50;;;;;;5027422;28;20432;-65
2023/11/24 12:50:48;;;;;;;7.70;7.13;;;8.20;34.50;;;;;;5027384;28;20436;-65
2023/11/24 12:53:23;;;;;;;8.03;7.33;;;8.20;33.50;;;;;;5012106;28;20432;-64
2023/11/24 12:55:49;;;;;;;7.00;6.60;;;8.30;33.70;;;;;;5018803;28;20872;-65
2023/11/24 12:58:15;;;;;;;8.47;8.07;;;8.20;34.30;;;;;;5019159;28;20428;-64